createdAt,value
2019-03-25T00:00:08.694Z,1014.73
2019-03-25T00:01:08.625Z,1014.71
2019-03-25T00:02:08.680Z,1014.71
2019-03-25T00:03:08.578Z,1014.65
2019-03-25T00:04:08.614Z,1014.65
2019-03-25T00:05:08.565Z,1014.64
2019-03-25T00:06:08.665Z,1014.63
2019-03-25T00:07:08.548Z,1014.63
2019-03-25T00:08:08.636Z,1014.60
2019-03-25T00:09:08.531Z,1014.60
2019-03-25T00:10:08.530Z,1014.62
2019-03-25T00:11:08.541Z,1014.54
2019-03-25T00:12:08.550Z,1014.57
2019-03-25T00:13:08.464Z,1014.58
2019-03-25T00:14:08.576Z,1014.55
2019-03-25T00:15:08.458Z,1014.56
2019-03-25T00:16:08.538Z,1014.58
2019-03-25T00:17:08.423Z,1014.51
2019-03-25T00:18:08.504Z,1014.49
2019-03-25T00:19:08.400Z,1014.46
2019-03-25T00:20:08.498Z,1014.42
2019-03-25T00:21:08.404Z,1014.43
2019-03-25T00:22:08.425Z,1014.36
2019-03-25T00:23:08.368Z,1014.30
2019-03-25T00:24:08.426Z,1014.36
2019-03-25T00:25:08.330Z,1014.31
2019-03-25T00:26:08.504Z,1014.31
2019-03-25T00:27:08.311Z,1014.30
2019-03-25T00:28:08.353Z,1014.28
2019-03-25T00:29:08.304Z,1014.23
2019-03-25T00:30:08.365Z,1014.18
2019-03-25T00:31:08.302Z,1014.11
2019-03-25T00:32:08.375Z,1014.15
2019-03-25T00:33:08.259Z,1014.05
2019-03-25T00:34:08.300Z,1014.06
2019-03-25T00:35:08.252Z,1014.01
2019-03-25T00:36:08.351Z,1014.00
2019-03-25T00:37:08.204Z,1014.06
2019-03-25T00:38:08.317Z,1014.00
2019-03-25T00:39:08.216Z,1014.02
2019-03-25T00:40:08.231Z,1013.94
2019-03-25T00:41:08.181Z,1013.91
2019-03-25T00:42:08.266Z,1013.93
2019-03-25T00:43:08.138Z,1013.86
2019-03-25T00:44:08.150Z,1013.92
2019-03-25T00:45:08.112Z,1013.86
2019-03-25T00:46:08.210Z,1013.87
2019-03-25T00:47:08.096Z,1013.77
2019-03-25T00:48:08.205Z,1013.82
2019-03-25T00:49:08.130Z,1013.75
2019-03-25T00:50:08.088Z,1013.72
2019-03-25T00:51:08.059Z,1013.68
2019-03-25T00:52:08.141Z,1013.65
2019-03-25T00:53:08.025Z,1013.65
2019-03-25T00:54:08.129Z,1013.63
2019-03-25T00:55:08.008Z,1013.61
2019-03-25T00:56:08.032Z,1013.59
2019-03-25T00:57:08.021Z,1013.58
2019-03-25T00:58:08.055Z,1013.55
2019-03-25T00:59:07.996Z,1013.50
2019-03-25T01:00:08.056Z,1013.47
2019-03-25T01:01:07.945Z,1013.51
2019-03-25T01:02:08.139Z,1013.47
2019-03-25T01:03:07.930Z,1013.42
2019-03-25T01:05:07.911Z,1013.37
2019-03-25T01:06:08.004Z,1013.38
2019-03-25T01:07:07.918Z,1013.37
2019-03-25T01:08:07.910Z,1013.37
2019-03-25T01:09:07.875Z,1013.30
2019-03-25T01:10:07.940Z,1013.29
2019-03-25T01:11:07.848Z,1013.37
2019-03-25T01:12:07.981Z,1013.29
2019-03-25T01:13:07.817Z,1013.34
2019-03-25T01:14:07.847Z,1013.30
2019-03-25T01:15:07.802Z,1013.25
2019-03-25T01:16:07.875Z,1013.26
2019-03-25T01:17:07.773Z,1013.26
2019-03-25T01:18:16.416Z,1013.26
2019-03-25T01:19:08.748Z,1013.17
2019-03-25T01:20:07.842Z,1013.20
2019-03-25T01:21:07.749Z,1013.19
2019-03-25T01:22:07.853Z,1013.11
2019-03-25T01:23:07.727Z,1013.05
2019-03-25T01:24:07.816Z,1013.03
2019-03-25T01:25:07.687Z,1013.08
2019-03-25T01:26:07.735Z,1013.01
2019-03-25T01:27:07.707Z,1013.01
2019-03-25T01:28:07.743Z,1012.96
2019-03-25T01:29:07.642Z,1013.00
2019-03-25T01:30:07.756Z,1012.93
2019-03-25T01:31:07.617Z,1013.05
2019-03-25T01:32:07.668Z,1013.00
2019-03-25T01:33:07.644Z,1012.91
2019-03-25T01:34:07.690Z,1012.85
2019-03-25T01:35:07.617Z,1012.95
2019-03-25T01:36:07.600Z,1012.89
2019-03-25T01:37:07.597Z,1012.95
2019-03-25T01:38:07.656Z,1012.86
2019-03-25T01:39:07.528Z,1012.78
2019-03-25T01:40:07.627Z,1012.79
2019-03-25T01:41:07.514Z,1012.76
2019-03-25T01:42:07.533Z,1012.71
2019-03-25T01:43:07.494Z,1012.77
2019-03-25T01:44:07.576Z,1012.72
2019-03-25T01:45:07.464Z,1012.69
2019-03-25T01:46:07.566Z,1012.75
2019-03-25T01:47:07.454Z,1012.69
2019-03-25T01:48:07.505Z,1012.68
2019-03-25T01:49:07.429Z,1012.63
2019-03-25T01:50:07.485Z,1012.59
2019-03-25T01:51:07.404Z,1012.63
2019-03-25T01:52:07.506Z,1012.58
2019-03-25T01:53:07.412Z,1012.49
2019-03-25T01:54:07.413Z,1012.59
2019-03-25T01:55:13.373Z,1012.58
2019-03-25T01:56:08.448Z,1012.59
2019-03-25T01:57:07.348Z,1012.53
2019-03-25T01:58:07.474Z,1012.45
2019-03-25T01:59:07.344Z,1012.51
2019-03-25T02:00:07.367Z,1012.50
2019-03-25T02:01:07.292Z,1012.48
2019-03-25T02:02:07.372Z,1012.48
2019-03-25T02:03:07.267Z,1012.47
2019-03-25T02:04:07.431Z,1012.44
2019-03-25T02:05:07.251Z,1012.54
2019-03-25T02:06:07.291Z,1012.40
2019-03-25T02:07:07.231Z,1012.38
2019-03-25T02:08:07.305Z,1012.42
2019-03-25T02:09:07.255Z,1012.39
2019-03-25T02:10:07.342Z,1012.40
2019-03-25T02:11:07.187Z,1012.32
2019-03-25T02:12:07.253Z,1012.37
2019-03-25T02:13:07.186Z,1012.31
2019-03-25T02:14:07.267Z,1012.22
2019-03-25T02:15:07.145Z,1012.30
2019-03-25T02:16:07.174Z,1012.25
2019-03-25T02:17:07.145Z,1012.25
2019-03-25T02:18:07.164Z,1012.29
2019-03-25T02:19:07.129Z,1012.19
2019-03-25T02:20:07.181Z,1012.27
2019-03-25T02:21:07.089Z,1012.22
2019-03-25T02:22:07.091Z,1012.19
2019-03-25T02:23:07.290Z,1012.17
2019-03-25T02:24:07.114Z,1012.18
2019-03-25T02:25:07.077Z,1012.20
2019-03-25T02:26:07.121Z,1012.11
2019-03-25T02:27:07.016Z,1012.17
2019-03-25T02:28:07.032Z,1012.17
2019-03-25T02:29:06.996Z,1012.11
2019-03-25T02:30:07.083Z,1012.04
2019-03-25T02:31:06.969Z,1012.13
2019-03-25T02:32:07.056Z,1012.06
2019-03-25T02:33:06.954Z,1012.02
2019-03-25T02:34:06.981Z,1011.95
2019-03-25T02:35:06.962Z,1011.92
2019-03-25T02:36:06.987Z,1011.94
2019-03-25T02:37:06.907Z,1011.83
2019-03-25T02:38:07.002Z,1011.79
2019-03-25T02:39:06.915Z,1011.79
2019-03-25T02:40:06.938Z,1011.84
2019-03-25T02:41:06.880Z,1011.75
2019-03-25T02:42:06.922Z,1011.72
2019-03-25T02:43:06.842Z,1011.63
2019-03-25T02:44:06.954Z,1011.72
2019-03-25T02:45:06.843Z,1011.68
2019-03-25T02:46:06.863Z,1011.67
2019-03-25T02:47:06.808Z,1011.63
2019-03-25T02:48:06.893Z,1011.68
2019-03-25T02:49:06.772Z,1011.79
2019-03-25T02:50:06.912Z,1011.74
2019-03-25T02:51:06.782Z,1011.75
2019-03-25T02:52:06.794Z,1011.74
2019-03-25T02:53:06.740Z,1011.74
2019-03-25T02:54:06.800Z,1011.76
2019-03-25T02:55:06.747Z,1011.79
2019-03-25T02:56:06.827Z,1011.75
2019-03-25T02:57:06.728Z,1011.67
2019-03-25T02:58:06.734Z,1011.61
2019-03-25T02:59:06.734Z,1011.58
2019-03-25T03:00:06.785Z,1011.57
2019-03-25T03:01:06.638Z,1011.56
2019-03-25T03:02:06.766Z,1011.55
2019-03-25T03:03:06.648Z,1011.55
2019-03-25T03:04:06.673Z,1011.50
2019-03-25T03:05:06.618Z,1011.53
2019-03-25T03:06:06.820Z,1011.55
2019-03-25T03:07:06.577Z,1011.53
2019-03-25T03:08:06.623Z,1011.49
2019-03-25T03:09:06.579Z,1011.53
2019-03-25T03:10:06.614Z,1011.59
2019-03-25T03:11:06.546Z,1011.54
2019-03-25T03:12:06.667Z,1011.53
2019-03-25T03:13:06.511Z,1011.59
2019-03-25T03:14:06.536Z,1011.59
2019-03-25T03:15:06.530Z,1011.62
2019-03-25T03:16:06.550Z,1011.51
2019-03-25T03:17:06.502Z,1011.57
2019-03-25T03:18:06.571Z,1011.63
2019-03-25T03:19:06.458Z,1011.56
2019-03-25T03:20:06.484Z,1011.62
2019-03-25T03:21:06.463Z,1011.60
2019-03-25T03:22:06.496Z,1011.68
2019-03-25T03:23:06.414Z,1011.60
2019-03-25T03:24:06.576Z,1011.62
2019-03-25T03:25:06.430Z,1011.65
2019-03-25T03:26:06.450Z,1011.72
2019-03-25T03:27:06.387Z,1011.69
2019-03-25T03:28:06.451Z,1011.76
2019-03-25T03:29:06.333Z,1011.72
2019-03-25T03:30:06.444Z,1011.76
2019-03-25T03:31:06.350Z,1011.80
2019-03-25T03:32:06.444Z,1011.85
2019-03-25T03:33:06.291Z,1011.83
2019-03-25T03:34:06.391Z,1011.89
2019-03-25T03:35:06.287Z,1011.91
2019-03-25T03:36:06.393Z,1011.95
2019-03-25T03:37:06.292Z,1011.88
2019-03-25T03:38:06.305Z,1011.85
2019-03-25T03:39:06.231Z,1011.99
2019-03-25T03:40:06.318Z,1012.06
2019-03-25T03:41:06.214Z,1012.16
2019-03-25T03:42:06.369Z,1012.18
2019-03-25T03:43:06.187Z,1012.12
2019-03-25T03:44:06.264Z,1012.10
2019-03-25T03:45:06.171Z,1012.25
2019-03-25T03:46:06.244Z,1012.22
2019-03-25T03:47:06.191Z,1012.24
2019-03-25T03:48:06.202Z,1012.31
2019-03-25T03:49:06.147Z,1012.31
2019-03-25T03:50:06.168Z,1012.35
2019-03-25T03:51:06.110Z,1012.33
2019-03-25T03:52:06.220Z,1012.32
2019-03-25T03:53:06.136Z,1012.33
2019-03-25T03:54:06.202Z,1012.36
2019-03-25T03:55:06.073Z,1012.30
2019-03-25T03:56:13.224Z,1012.31
2019-03-25T03:57:07.063Z,1012.26
2019-03-25T03:58:06.121Z,1012.28
2019-03-25T03:59:06.009Z,1012.25
2019-03-25T04:00:06.037Z,1012.21
2019-03-25T04:01:05.992Z,1012.25
2019-03-25T04:02:06.051Z,1012.19
2019-03-25T04:03:06.026Z,1012.14
2019-03-25T04:04:06.132Z,1012.19
2019-03-25T04:05:05.947Z,1012.16
2019-03-25T04:06:06.046Z,1012.13
2019-03-25T04:07:05.938Z,1011.99
2019-03-25T04:08:05.991Z,1011.91
2019-03-25T04:09:05.967Z,1011.85
2019-03-25T04:10:06.015Z,1011.87
2019-03-25T04:11:05.910Z,1011.83
2019-03-25T04:12:05.939Z,1011.79
2019-03-25T04:13:05.923Z,1011.83
2019-03-25T04:14:05.986Z,1011.85
2019-03-25T04:15:05.843Z,1011.88
2019-03-25T04:16:05.945Z,1011.86
2019-03-25T04:17:05.826Z,1011.88
2019-03-25T04:18:05.863Z,1011.85
2019-03-25T04:19:05.853Z,1011.92
2019-03-25T04:20:05.879Z,1011.92
2019-03-25T04:21:05.781Z,1011.89
2019-03-25T04:22:05.885Z,1011.88
2019-03-25T04:23:05.790Z,1011.92
2019-03-25T04:24:05.830Z,1011.88
2019-03-25T04:25:05.748Z,1011.94
2019-03-25T04:26:05.818Z,1011.93
2019-03-25T04:27:05.710Z,1011.90
2019-03-25T04:28:05.826Z,1011.91
2019-03-25T04:29:05.756Z,1011.90
2019-03-25T04:30:05.754Z,1011.98
2019-03-25T04:31:05.699Z,1011.93
2019-03-25T04:32:06.305Z,1012.02
2019-03-25T04:33:05.647Z,1012.02
2019-03-25T04:34:05.668Z,1012.05
2019-03-25T04:35:05.660Z,1012.02
2019-03-25T04:36:05.682Z,1012.00
2019-03-25T04:37:05.602Z,1012.06
2019-03-25T04:38:05.702Z,1012.03
2019-03-25T04:39:05.607Z,1012.04
2019-03-25T04:40:05.633Z,1012.10
2019-03-25T04:41:05.604Z,1012.04
2019-03-25T04:42:05.632Z,1012.10
2019-03-25T04:43:05.539Z,1012.06
2019-03-25T04:44:05.624Z,1012.07
2019-03-25T04:45:05.541Z,1011.99
2019-03-25T04:46:05.563Z,1012.05
2019-03-25T04:47:05.487Z,1012.10
2019-03-25T04:48:05.592Z,1012.06
2019-03-25T04:49:05.471Z,1012.04
2019-03-25T04:50:05.654Z,1012.10
2019-03-25T04:51:05.455Z,1012.17
2019-03-25T04:52:05.484Z,1012.09
2019-03-25T04:53:05.444Z,1012.08
2019-03-25T04:54:05.496Z,1012.08
2019-03-25T04:55:05.440Z,1012.15
2019-03-25T04:57:06.428Z,1012.07
2019-03-25T04:58:05.411Z,1012.06
2019-03-25T04:59:05.619Z,1012.10
2019-03-25T05:00:06.497Z,1012.09
2019-03-25T05:01:05.344Z,1012.12
2019-03-25T05:02:05.459Z,1012.10
2019-03-25T05:03:05.319Z,1012.09
2019-03-25T05:04:05.355Z,1012.08
2019-03-25T05:05:05.334Z,1012.07
2019-03-25T05:06:05.370Z,1012.01
2019-03-25T05:07:05.266Z,1012.01
2019-03-25T05:09:06.296Z,1012.06
2019-03-25T05:11:06.306Z,1012.00
2019-03-25T05:12:07.267Z,1012.02
2019-03-25T05:13:05.213Z,1012.03
2019-03-25T05:14:05.221Z,1011.98
2019-03-25T05:15:05.190Z,1012.02
2019-03-25T05:16:05.261Z,1012.04
2019-03-25T05:17:05.171Z,1012.02
2019-03-25T05:18:05.266Z,1012.02
2019-03-25T05:19:05.149Z,1011.99
2019-03-25T05:20:05.160Z,1011.97
2019-03-25T05:21:05.144Z,1012.01
2019-03-25T05:22:05.180Z,1011.95
2019-03-25T05:23:05.090Z,1012.04
2019-03-25T05:25:06.122Z,1012.01
2019-03-25T05:26:05.186Z,1012.03
2019-03-25T05:27:05.102Z,1012.03
2019-03-25T05:28:05.167Z,1012.03
2019-03-25T05:29:05.088Z,1011.98
2019-03-25T05:30:05.173Z,1012.04
2019-03-25T05:31:05.033Z,1012.07
2019-03-25T05:32:05.040Z,1012.08
2019-03-25T05:33:04.987Z,1011.98
2019-03-25T05:34:05.053Z,1012.00
2019-03-25T05:35:04.979Z,1012.03
2019-03-25T05:36:05.098Z,1012.03
2019-03-25T05:37:04.941Z,1012.16
2019-03-25T05:38:04.980Z,1012.10
2019-03-25T05:39:04.923Z,1012.10
2019-03-25T05:40:05.024Z,1012.10
2019-03-25T05:41:04.901Z,1012.04
2019-03-25T05:42:05.039Z,1012.05
2019-03-25T05:43:04.899Z,1012.05
2019-03-25T05:44:04.927Z,1011.97
2019-03-25T05:45:04.920Z,1012.05
2019-03-25T05:47:05.913Z,1012.02
2019-03-25T05:48:04.943Z,1012.02
2019-03-25T05:49:04.813Z,1012.04
2019-03-25T05:50:04.860Z,1012.04
2019-03-25T05:51:04.784Z,1012.04
2019-03-25T05:52:04.909Z,1012.05
2019-03-25T05:53:04.784Z,1012.00
2019-03-25T05:54:04.793Z,1012.09
2019-03-25T05:55:04.739Z,1011.92
2019-03-25T05:56:04.800Z,1012.01
2019-03-25T05:57:04.821Z,1012.04
2019-03-25T05:58:04.810Z,1011.98
2019-03-25T05:59:04.700Z,1011.95
2019-03-25T06:00:04.718Z,1011.94
2019-03-25T06:01:04.682Z,1011.92
2019-03-25T06:02:04.770Z,1011.91
2019-03-25T06:03:04.662Z,1011.92
2019-03-25T06:04:04.762Z,1011.91
2019-03-25T06:05:04.645Z,1011.90
2019-03-25T06:06:04.669Z,1011.86
2019-03-25T06:07:04.762Z,1011.94
2019-03-25T06:08:04.694Z,1011.82
2019-03-25T06:09:04.622Z,1011.87
2019-03-25T06:10:04.695Z,1011.92
2019-03-25T06:11:04.584Z,1011.91
2019-03-25T06:12:04.638Z,1011.90
2019-03-25T06:13:04.547Z,1011.93
2019-03-25T06:14:04.624Z,1011.91
2019-03-25T06:15:04.532Z,1011.92
2019-03-25T06:16:04.627Z,1011.91
2019-03-25T06:17:04.518Z,1011.93
2019-03-25T06:18:04.584Z,1011.91
2019-03-25T06:19:04.480Z,1011.94
2019-03-25T06:20:04.567Z,1011.90
2019-03-25T06:21:04.465Z,1011.94
2019-03-25T06:22:04.569Z,1011.92
2019-03-25T06:23:04.495Z,1011.95
2019-03-25T06:24:04.513Z,1011.92
2019-03-25T06:25:04.425Z,1011.92
2019-03-25T06:26:04.507Z,1011.92
2019-03-25T06:27:13.667Z,1011.92
2019-03-25T06:28:05.413Z,1011.94
2019-03-25T06:29:04.425Z,1011.95
2019-03-25T06:30:04.360Z,1012.00
2019-03-25T06:31:04.436Z,1011.90
2019-03-25T06:32:04.379Z,1011.90
2019-03-25T06:33:12.354Z,1011.94
2019-03-25T06:34:05.312Z,1011.88
2019-03-25T06:35:04.356Z,1011.93
2019-03-25T06:36:04.297Z,1011.96
2019-03-25T06:37:04.380Z,1011.87
2019-03-25T06:38:04.271Z,1011.87
2019-03-25T06:39:04.409Z,1011.86
2019-03-25T06:40:04.250Z,1011.80
2019-03-25T06:41:04.294Z,1011.85
2019-03-25T06:42:04.231Z,1011.75
2019-03-25T06:43:04.337Z,1011.78
2019-03-25T06:44:04.248Z,1011.80
2019-03-25T06:45:04.326Z,1011.72
2019-03-25T06:46:04.203Z,1011.83
2019-03-25T06:47:04.251Z,1011.83
2019-03-25T06:48:04.174Z,1011.84
2019-03-25T06:49:04.289Z,1011.86
2019-03-25T06:50:04.158Z,1011.83
2019-03-25T06:51:04.278Z,1011.84
2019-03-25T06:52:04.177Z,1011.87
2019-03-25T06:53:04.179Z,1011.78
2019-03-25T06:54:04.125Z,1011.79
2019-03-25T06:55:04.194Z,1011.89
2019-03-25T06:56:04.070Z,1011.81
2019-03-25T06:57:04.091Z,1011.73
2019-03-25T06:58:04.058Z,1011.74
2019-03-25T06:59:04.142Z,1011.75
2019-03-25T07:00:04.032Z,1011.73
2019-03-25T07:01:04.130Z,1011.78
2019-03-25T07:02:04.031Z,1011.76
2019-03-25T07:03:04.060Z,1011.82
2019-03-25T07:04:04.021Z,1011.77
2019-03-25T07:05:04.086Z,1011.77
2019-03-25T07:06:03.968Z,1011.78
2019-03-25T07:07:04.075Z,1011.71
2019-03-25T07:08:03.947Z,1011.70
2019-03-25T07:09:05.026Z,1011.69
2019-03-25T07:10:03.951Z,1011.64
2019-03-25T07:11:03.992Z,1011.65
2019-03-25T07:12:03.910Z,1011.62
2019-03-25T07:14:04.931Z,1011.53
2019-03-25T07:15:05.359Z,1011.50
2019-03-25T07:16:03.875Z,1011.55
2019-03-25T07:17:03.924Z,1011.64
2019-03-25T07:18:03.847Z,1011.65
2019-03-25T07:19:03.956Z,1011.66
2019-03-25T07:20:03.843Z,1011.58
2019-03-25T07:21:03.871Z,1011.55
2019-03-25T07:22:03.794Z,1011.55
2019-03-25T07:23:03.803Z,1011.69
2019-03-25T07:24:03.791Z,1011.73
2019-03-25T07:25:03.920Z,1011.61
2019-03-25T07:26:03.752Z,1011.59
2019-03-25T07:27:03.807Z,1011.66
2019-03-25T07:29:04.887Z,1011.70
2019-03-25T07:30:03.791Z,1011.66
2019-03-25T07:31:03.911Z,1011.71
2019-03-25T07:32:03.741Z,1011.75
2019-03-25T07:33:03.791Z,1011.76
2019-03-25T07:34:03.718Z,1011.76
2019-03-25T07:35:03.747Z,1011.65
2019-03-25T07:36:03.670Z,1011.71
2019-03-25T07:37:03.655Z,1011.72
2019-03-25T07:38:03.618Z,1011.78
2019-03-25T07:39:03.690Z,1011.68
2019-03-25T07:40:03.596Z,1011.68
2019-03-25T07:41:03.724Z,1011.75
2019-03-25T07:42:03.601Z,1011.78
2019-03-25T07:43:03.617Z,1011.73
2019-03-25T07:44:03.556Z,1011.77
2019-03-25T07:45:03.616Z,1011.78
2019-03-25T07:46:03.576Z,1011.78
2019-03-25T07:47:03.649Z,1011.74
2019-03-25T07:48:04.220Z,1011.75
2019-03-25T07:49:03.535Z,1011.71
2019-03-25T07:50:03.524Z,1011.68
2019-03-25T07:51:03.559Z,1011.67
2019-03-25T07:52:03.500Z,1011.67
2019-03-25T07:53:03.567Z,1011.68
2019-03-25T07:54:03.482Z,1011.78
2019-03-25T07:55:03.486Z,1011.70
2019-03-25T07:56:03.457Z,1011.68
2019-03-25T07:57:03.543Z,1011.70
2019-03-25T07:58:03.441Z,1011.71
2019-03-25T07:59:03.525Z,1011.84
2019-03-25T08:00:13.226Z,1011.85
2019-03-25T08:01:04.396Z,1011.84
2019-03-25T08:02:03.474Z,1011.82
2019-03-25T08:03:03.358Z,1011.76
2019-03-25T08:04:03.462Z,1011.85
2019-03-25T08:05:03.337Z,1011.82
2019-03-25T08:06:03.351Z,1011.79
2019-03-25T08:07:03.378Z,1011.92
2019-03-25T08:08:03.382Z,1011.85
2019-03-25T08:09:04.178Z,1011.88
2019-03-25T08:10:03.379Z,1011.94
2019-03-25T08:11:03.303Z,1011.97
2019-03-25T08:12:03.336Z,1012.02
2019-03-25T08:13:03.298Z,1012.06
2019-03-25T08:14:03.372Z,1011.99
2019-03-25T08:15:03.250Z,1012.08
2019-03-25T08:16:03.484Z,1012.03
2019-03-25T08:17:03.313Z,1012.09
2019-03-25T08:18:03.226Z,1012.09
2019-03-25T08:19:03.178Z,1012.05
2019-03-25T08:20:03.236Z,1012.02
2019-03-25T08:21:03.170Z,1012.12
2019-03-25T08:22:03.255Z,1012.06
2019-03-25T08:23:03.171Z,1012.05
2019-03-25T08:24:03.163Z,1012.03
2019-03-25T08:25:03.119Z,1012.06
2019-03-25T08:26:03.180Z,1012.14
2019-03-25T08:27:03.105Z,1012.17
2019-03-25T08:28:03.202Z,1012.20
2019-03-25T08:29:03.124Z,1012.25
2019-03-25T08:30:03.101Z,1012.24
2019-03-25T08:31:03.052Z,1012.30
2019-03-25T08:32:03.157Z,1012.25
2019-03-25T08:33:03.073Z,1012.25
2019-03-25T08:34:03.127Z,1012.30
2019-03-25T08:35:03.009Z,1012.35
2019-03-25T08:36:03.047Z,1012.43
2019-03-25T08:37:04.400Z,1012.36
2019-03-25T08:38:03.095Z,1012.31
2019-03-25T08:39:02.983Z,1012.34
2019-03-25T08:40:03.085Z,1012.27
2019-03-25T08:41:02.944Z,1012.28
2019-03-25T08:42:02.989Z,1012.19
2019-03-25T08:43:02.961Z,1012.24
2019-03-25T08:44:03.000Z,1012.29
2019-03-25T08:45:02.908Z,1012.28
2019-03-25T08:46:03.030Z,1012.30
2019-03-25T08:47:02.884Z,1012.28
2019-03-25T08:48:02.973Z,1012.35
2019-03-25T08:49:02.857Z,1012.34
2019-03-25T08:50:02.941Z,1012.36
2019-03-25T08:51:02.858Z,1012.41
2019-03-25T08:52:02.858Z,1012.41
2019-03-25T08:53:02.910Z,1012.34
2019-03-25T08:54:02.889Z,1012.33
2019-03-25T08:55:02.810Z,1012.38
2019-03-25T08:56:02.889Z,1012.38
2019-03-25T08:57:02.782Z,1012.33
2019-03-25T08:58:11.535Z,1012.32
2019-03-25T08:59:03.767Z,1012.33
2019-03-25T09:00:02.808Z,1012.27
2019-03-25T09:01:02.722Z,1012.28
2019-03-25T09:02:02.817Z,1012.30
2019-03-25T09:03:02.707Z,1012.33
2019-03-25T09:04:02.752Z,1012.30
2019-03-25T09:05:02.698Z,1012.31
2019-03-25T09:06:02.758Z,1012.34
2019-03-25T09:07:02.691Z,1012.35
2019-03-25T09:08:02.760Z,1012.36
2019-03-25T09:09:02.691Z,1012.35
2019-03-25T09:10:02.668Z,1012.40
2019-03-25T09:11:02.624Z,1012.45
2019-03-25T09:12:02.708Z,1012.44
2019-03-25T09:13:02.606Z,1012.45
2019-03-25T09:14:02.717Z,1012.35
2019-03-25T09:15:02.634Z,1012.48
2019-03-25T09:16:02.617Z,1012.51
2019-03-25T09:17:02.555Z,1012.49
2019-03-25T09:18:02.627Z,1012.43
2019-03-25T09:19:02.557Z,1012.49
2019-03-25T09:20:02.669Z,1012.52
2019-03-25T09:21:02.508Z,1012.47
2019-03-25T09:22:02.585Z,1012.46
2019-03-25T09:23:02.496Z,1012.58
2019-03-25T09:24:02.569Z,1012.55
2019-03-25T09:25:02.541Z,1012.55
2019-03-25T09:26:02.598Z,1012.49
2019-03-25T09:27:02.444Z,1012.45
2019-03-25T09:28:02.501Z,1012.44
2019-03-25T09:29:02.424Z,1012.40
2019-03-25T09:30:03.631Z,1012.38
2019-03-25T09:31:02.398Z,1012.58
2019-03-25T09:32:02.544Z,1012.40
2019-03-25T09:33:02.377Z,1012.43
2019-03-25T09:34:02.510Z,1012.47
2019-03-25T09:35:02.389Z,1012.47
2019-03-25T09:36:02.470Z,1012.46
2019-03-25T09:37:02.342Z,1012.38
2019-03-25T09:38:02.349Z,1012.38
2019-03-25T09:39:02.306Z,1012.37
2019-03-25T09:40:02.405Z,1012.26
2019-03-25T09:41:02.324Z,1012.22
2019-03-25T09:42:02.377Z,1012.24
2019-03-25T09:43:02.262Z,1012.28
2019-03-25T09:44:02.386Z,1012.33
2019-03-25T09:45:02.271Z,1012.24
2019-03-25T09:46:02.345Z,1012.16
2019-03-25T09:47:02.241Z,1012.22
2019-03-25T09:48:02.347Z,1012.38
2019-03-25T09:49:02.209Z,1012.33
2019-03-25T09:50:02.244Z,1012.42
2019-03-25T09:51:02.202Z,1012.27
2019-03-25T09:52:02.263Z,1012.45
2019-03-25T09:53:02.197Z,1012.41
2019-03-25T09:54:02.259Z,1012.35
2019-03-25T09:55:02.144Z,1012.53
2019-03-25T09:56:02.190Z,1012.48
2019-03-25T09:57:02.112Z,1012.56
2019-03-25T09:58:02.199Z,1012.37
2019-03-25T09:59:02.091Z,1012.42
2019-03-25T10:00:02.228Z,1012.47
2019-03-25T10:01:02.097Z,1012.43
2019-03-25T10:02:02.123Z,1012.54
2019-03-25T10:03:02.048Z,1012.63
2019-03-25T10:04:02.188Z,1012.59
2019-03-25T10:05:02.062Z,1012.80
2019-03-25T10:06:02.189Z,1012.74
2019-03-25T10:07:02.057Z,1012.77
2019-03-25T10:08:02.051Z,1012.81
2019-03-25T10:09:01.995Z,1012.64
2019-03-25T10:10:02.066Z,1012.87
2019-03-25T10:11:01.995Z,1012.86
2019-03-25T10:12:02.092Z,1012.87
2019-03-25T10:13:01.944Z,1012.93
2019-03-25T10:14:02.007Z,1012.89
2019-03-25T10:15:01.992Z,1012.92
2019-03-25T10:16:02.018Z,1012.97
2019-03-25T10:17:01.936Z,1012.99
2019-03-25T10:18:26.817Z,1012.92
2019-03-25T10:19:02.878Z,1013.02
2019-03-25T10:20:01.933Z,1012.95
2019-03-25T10:21:01.863Z,1012.94
2019-03-25T10:22:01.964Z,1013.09
2019-03-25T10:23:01.829Z,1012.94
2019-03-25T10:24:01.958Z,1012.93
2019-03-25T10:25:01.814Z,1012.96
2019-03-25T10:26:01.867Z,1012.95
2019-03-25T10:27:01.822Z,1012.94
2019-03-25T10:28:01.931Z,1013.02
2019-03-25T10:29:01.774Z,1013.00
2019-03-25T10:30:01.800Z,1013.16
2019-03-25T10:31:01.739Z,1013.05
2019-03-25T10:32:01.828Z,1013.03
2019-03-25T10:33:01.716Z,1012.99
2019-03-25T10:34:01.833Z,1013.01
2019-03-25T10:35:01.720Z,1012.97
2019-03-25T10:36:01.725Z,1013.10
2019-03-25T10:37:01.701Z,1013.13
2019-03-25T10:38:01.746Z,1013.09
2019-03-25T10:39:01.656Z,1013.17
2019-03-25T10:40:01.756Z,1013.13
2019-03-25T10:41:01.629Z,1013.25
2019-03-25T10:42:01.698Z,1013.14
2019-03-25T10:43:01.625Z,1013.10
2019-03-25T10:44:01.683Z,1013.20
2019-03-25T10:45:01.591Z,1013.18
2019-03-25T10:46:01.690Z,1013.29
2019-03-25T10:47:01.599Z,1013.23
2019-03-25T10:48:01.640Z,1013.18
2019-03-25T10:49:01.549Z,1013.09
2019-03-25T10:50:01.617Z,1013.09
2019-03-25T10:51:01.535Z,1013.17
2019-03-25T10:52:01.646Z,1013.24
2019-03-25T10:53:01.518Z,1013.28
2019-03-25T10:54:01.578Z,1013.25
2019-03-25T10:55:01.479Z,1013.36
2019-03-25T10:56:01.554Z,1013.29
2019-03-25T10:57:01.457Z,1013.42
2019-03-25T10:58:01.583Z,1013.29
2019-03-25T10:59:01.466Z,1013.35
2019-03-25T11:00:01.490Z,1013.37
2019-03-25T11:01:01.420Z,1013.32
2019-03-25T11:02:01.532Z,1013.39
2019-03-25T11:03:01.421Z,1013.25
2019-03-25T11:04:01.476Z,1013.50
2019-03-25T11:05:01.368Z,1013.27
2019-03-25T11:06:01.437Z,1013.28
2019-03-25T11:07:01.359Z,1013.24
2019-03-25T11:08:01.441Z,1013.38
2019-03-25T11:09:01.356Z,1013.21
2019-03-25T11:10:01.423Z,1013.18
2019-03-25T11:11:01.302Z,1013.22
2019-03-25T11:12:01.432Z,1013.25
2019-03-25T11:13:01.306Z,1013.19
2019-03-25T11:14:01.407Z,1013.36
2019-03-25T11:15:01.294Z,1013.23
2019-03-25T11:16:01.286Z,1013.28
2019-03-25T11:17:01.239Z,1013.31
2019-03-25T11:18:01.302Z,1013.45
2019-03-25T11:19:01.264Z,1013.25
2019-03-25T11:20:01.346Z,1013.22
2019-03-25T11:21:01.209Z,1013.35
2019-03-25T11:22:01.246Z,1013.37
2019-03-25T11:23:01.201Z,1013.55
2019-03-25T11:24:01.272Z,1013.41
2019-03-25T11:25:01.176Z,1013.42
2019-03-25T11:26:01.281Z,1013.59
2019-03-25T11:27:01.129Z,1013.54
2019-03-25T11:28:01.167Z,1013.49
2019-03-25T11:29:08.298Z,1013.48
2019-03-25T11:30:02.237Z,1013.51
2019-03-25T11:31:01.100Z,1013.40
2019-03-25T11:32:01.195Z,1013.41
2019-03-25T11:33:01.070Z,1013.42
2019-03-25T11:34:01.339Z,1013.41
2019-03-25T11:35:01.042Z,1013.70
2019-03-25T11:36:02.809Z,1013.65
2019-03-25T11:37:01.021Z,1013.57
2019-03-25T11:38:01.062Z,1013.62
2019-03-25T11:39:01.014Z,1013.70
2019-03-25T11:40:01.096Z,1013.61
2019-03-25T11:41:01.012Z,1013.72
2019-03-25T11:42:01.090Z,1013.67
2019-03-25T11:43:00.964Z,1013.78
2019-03-25T11:44:00.984Z,1013.70
2019-03-25T11:45:00.981Z,1013.83
2019-03-25T11:46:00.985Z,1013.98
2019-03-25T11:47:00.918Z,1014.09
2019-03-25T11:48:00.996Z,1014.13
2019-03-25T11:49:00.897Z,1014.03
2019-03-25T11:50:01.062Z,1014.02
2019-03-25T11:51:00.923Z,1014.20
2019-03-25T11:52:00.948Z,1014.14
2019-03-25T11:53:00.850Z,1014.07
2019-03-25T11:54:00.944Z,1014.08
2019-03-25T11:55:00.858Z,1014.02
2019-03-25T11:56:00.885Z,1013.99
2019-03-25T11:57:00.802Z,1014.01
2019-03-25T11:58:00.861Z,1013.91
2019-03-25T11:59:02.875Z,1013.96
2019-03-25T12:00:00.879Z,1013.98
2019-03-25T12:01:00.824Z,1014.01
2019-03-25T12:02:00.794Z,1013.96
2019-03-25T12:03:00.739Z,1013.89
2019-03-25T12:04:00.821Z,1013.88
2019-03-25T12:05:00.746Z,1013.87
2019-03-25T12:06:00.847Z,1013.87
2019-03-25T12:07:00.705Z,1013.87
2019-03-25T12:08:00.732Z,1013.93
2019-03-25T12:09:00.911Z,1013.82
2019-03-25T12:10:00.772Z,1013.94
2019-03-25T12:11:00.676Z,1013.97
2019-03-25T12:12:00.770Z,1013.99
2019-03-25T12:13:00.630Z,1013.98